sensor_id;sensor_type;location;lat;lon;timestamp;P1;durP1;ratioP1;P2;durP2;ratioP2
23078;SDS011;11707;50.830;4.364;2023-05-07T00:02:16;12.50;;;5.43;;
23078;SDS011;11707;50.830;4.364;2023-05-07T00:04:41;10.68;;;4.13;;
23078;SDS011;11707;50.830;4.364;2023-05-07T00:07:07;8.75;;;3.60;;
23078;SDS011;11707;50.830;4.364;2023-05-07T00:09:33;6.70;;;3.38;;
23078;SDS011;11707;50.830;4.364;2023-05-07T00:11:59;11.52;;;3.22;;
23078;SDS011;11707;50.830;4.364;2023-05-07T00:14:27;11.50;;;3.17;;
23078;SDS011;11707;50.830;4.364;2023-05-07T00:16:53;12.35;;;4.00;;
23078;SDS011;11707;50.830;4.364;2023-05-07T00:19:18;12.57;;;3.55;;
23078;SDS011;11707;50.830;4.364;2023-05-07T00:21:44;8.40;;;3.42;;
23078;SDS011;11707;50.830;4.364;2023-05-07T00:24:12;11.82;;;3.63;;
23078;SDS011;11707;50.830;4.364;2023-05-07T00:26:40;5.95;;;3.38;;
23078;SDS011;11707;50.830;4.364;2023-05-07T00:29:06;8.52;;;3.95;;
23078;SDS011;11707;50.830;4.364;2023-05-07T00:31:31;9.50;;;3.05;;
23078;SDS011;11707;50.830;4.364;2023-05-07T00:33:57;8.18;;;3.60;;
23078;SDS011;11707;50.830;4.364;2023-05-07T00:36:23;6.53;;;3.28;;
23078;SDS011;11707;50.830;4.364;2023-05-07T00:38:48;12.43;;;3.63;;
23078;SDS011;11707;50.830;4.364;2023-05-07T00:41:15;9.27;;;3.55;;
23078;SDS011;11707;50.830;4.364;2023-05-07T00:43:41;7.07;;;3.35;;
23078;SDS011;11707;50.830;4.364;2023-05-07T00:46:07;8.63;;;3.25;;
23078;SDS011;11707;50.830;4.364;2023-05-07T00:48:35;8.07;;;3.22;;
23078;SDS011;11707;50.830;4.364;2023-05-07T00:51:01;12.70;;;3.75;;
23078;SDS011;11707;50.830;4.364;2023-05-07T00:53:29;8.32;;;3.08;;
23078;SDS011;11707;50.830;4.364;2023-05-07T00:55:55;7.55;;;3.53;;
23078;SDS011;11707;50.830;4.364;2023-05-07T00:58:25;12.07;;;3.47;;
23078;SDS011;11707;50.830;4.364;2023-05-07T01:00:51;9.48;;;3.55;;
23078;SDS011;11707;50.830;4.364;2023-05-07T01:03:17;8.20;;;3.08;;
23078;SDS011;11707;50.830;4.364;2023-05-07T01:05:43;10.40;;;3.65;;
23078;SDS011;11707;50.830;4.364;2023-05-07T01:08:11;7.97;;;3.75;;
23078;SDS011;11707;50.830;4.364;2023-05-07T01:10:37;8.73;;;3.17;;
23078;SDS011;11707;50.830;4.364;2023-05-07T01:13:07;8.13;;;3.05;;
23078;SDS011;11707;50.830;4.364;2023-05-07T01:15:35;8.95;;;2.70;;
23078;SDS011;11707;50.830;4.364;2023-05-07T01:18:01;6.28;;;3.35;;
23078;SDS011;11707;50.830;4.364;2023-05-07T01:20:29;12.05;;;3.45;;
23078;SDS011;11707;50.830;4.364;2023-05-07T01:22:55;9.68;;;3.53;;
23078;SDS011;11707;50.830;4.364;2023-05-07T01:25:24;9.90;;;2.92;;
23078;SDS011;11707;50.830;4.364;2023-05-07T01:27:50;16.35;;;4.35;;
23078;SDS011;11707;50.830;4.364;2023-05-07T01:30:16;12.00;;;3.97;;
23078;SDS011;11707;50.830;4.364;2023-05-07T01:35:15;8.05;;;3.00;;
23078;SDS011;11707;50.830;4.364;2023-05-07T01:37:47;10.25;;;4.05;;
23078;SDS011;11707;50.830;4.364;2023-05-07T01:40:14;9.35;;;5.35;;
23078;SDS011;11707;50.830;4.364;2023-05-07T01:42:41;12.48;;;3.55;;
23078;SDS011;11707;50.830;4.364;2023-05-07T01:45:08;16.58;;;3.95;;
23078;SDS011;11707;50.830;4.364;2023-05-07T01:47:34;17.10;;;3.97;;
23078;SDS011;11707;50.830;4.364;2023-05-07T01:50:01;8.65;;;3.20;;
23078;SDS011;11707;50.830;4.364;2023-05-07T01:52:28;6.85;;;3.08;;
23078;SDS011;11707;50.830;4.364;2023-05-07T01:54:54;8.18;;;3.22;;
23078;SDS011;11707;50.830;4.364;2023-05-07T01:57:20;9.93;;;4.45;;
23078;SDS011;11707;50.830;4.364;2023-05-07T01:59:45;12.73;;;3.42;;
23078;SDS011;11707;50.830;4.364;2023-05-07T02:02:11;10.75;;;3.75;;
23078;SDS011;11707;50.830;4.364;2023-05-07T02:04:37;6.55;;;2.90;;
23078;SDS011;11707;50.830;4.364;2023-05-07T02:07:03;13.43;;;3.60;;
23078;SDS011;11707;50.830;4.364;2023-05-07T02:09:30;7.72;;;3.13;;
23078;SDS011;11707;50.830;4.364;2023-05-07T02:11:58;11.95;;;3.10;;
23078;SDS011;11707;50.830;4.364;2023-05-07T02:14:26;10.63;;;3.05;;
23078;SDS011;11707;50.830;4.364;2023-05-07T02:16:52;9.93;;;3.30;;
23078;SDS011;11707;50.830;4.364;2023-05-07T02:19:19;11.25;;;3.17;;
23078;SDS011;11707;50.830;4.364;2023-05-07T02:21:46;8.05;;;3.47;;
23078;SDS011;11707;50.830;4.364;2023-05-07T02:24:12;12.38;;;3.30;;
23078;SDS011;11707;50.830;4.364;2023-05-07T02:26:40;9.98;;;3.03;;
23078;SDS011;11707;50.830;4.364;2023-05-07T02:29:06;9.98;;;3.25;;
23078;SDS011;11707;50.830;4.364;2023-05-07T02:31:34;9.13;;;3.20;;
23078;SDS011;11707;50.830;4.364;2023-05-07T02:34:00;9.30;;;2.85;;
23078;SDS011;11707;50.830;4.364;2023-05-07T02:36:26;9.10;;;3.55;;
23078;SDS011;11707;50.830;4.364;2023-05-07T02:38:52;9.13;;;2.72;;
23078;SDS011;11707;50.830;4.364;2023-05-07T02:41:18;8.55;;;2.95;;
23078;SDS011;11707;50.830;4.364;2023-05-07T02:43:44;11.05;;;4.63;;
23078;SDS011;11707;50.830;4.364;2023-05-07T02:46:10;10.68;;;5.03;;
23078;SDS011;11707;50.830;4.364;2023-05-07T02:48:37;13.27;;;3.50;;
23078;SDS011;11707;50.830;4.364;2023-05-07T02:51:03;10.82;;;3.25;;
23078;SDS011;11707;50.830;4.364;2023-05-07T02:53:30;10.68;;;3.78;;
23078;SDS011;11707;50.830;4.364;2023-05-07T02:55:57;9.98;;;3.33;;
23078;SDS011;11707;50.830;4.364;2023-05-07T02:58:24;15.40;;;3.45;;
23078;SDS011;11707;50.830;4.364;2023-05-07T03:00:50;9.43;;;3.47;;
23078;SDS011;11707;50.830;4.364;2023-05-07T03:03:21;7.72;;;3.10;;
23078;SDS011;11707;50.830;4.364;2023-05-07T03:05:47;9.60;;;3.30;;
23078;SDS011;11707;50.830;4.364;2023-05-07T03:08:13;9.40;;;3.40;;
23078;SDS011;11707;50.830;4.364;2023-05-07T03:10:39;10.60;;;3.95;;
23078;SDS011;11707;50.830;4.364;2023-05-07T03:13:04;8.00;;;3.35;;
23078;SDS011;11707;50.830;4.364;2023-05-07T03:15:30;6.68;;;2.92;;
23078;SDS011;11707;50.830;4.364;2023-05-07T03:17:56;15.13;;;3.88;;
23078;SDS011;11707;50.830;4.364;2023-05-07T03:20:22;12.35;;;3.67;;
23078;SDS011;11707;50.830;4.364;2023-05-07T03:22:48;11.55;;;4.07;;
23078;SDS011;11707;50.830;4.364;2023-05-07T03:25:17;12.65;;;3.25;;
23078;SDS011;11707;50.830;4.364;2023-05-07T03:27:45;8.88;;;3.25;;
23078;SDS011;11707;50.830;4.364;2023-05-07T03:30:11;9.65;;;3.30;;
23078;SDS011;11707;50.830;4.364;2023-05-07T03:32:37;8.82;;;3.47;;
23078;SDS011;11707;50.830;4.364;2023-05-07T03:35:03;8.45;;;3.05;;
23078;SDS011;11707;50.830;4.364;2023-05-07T03:37:29;7.78;;;3.67;;
23078;SDS011;11707;50.830;4.364;2023-05-07T03:39:55;7.88;;;3.20;;
23078;SDS011;11707;50.830;4.364;2023-05-07T03:42:21;11.25;;;3.95;;
23078;SDS011;11707;50.830;4.364;2023-05-07T03:44:47;7.88;;;3.13;;
23078;SDS011;11707;50.830;4.364;2023-05-07T03:47:12;8.68;;;3.50;;
23078;SDS011;11707;50.830;4.364;2023-05-07T03:49:38;8.02;;;3.28;;
23078;SDS011;11707;50.830;4.364;2023-05-07T03:52:04;13.75;;;3.95;;
23078;SDS011;11707;50.830;4.364;2023-05-07T03:54:33;7.20;;;2.95;;
23078;SDS011;11707;50.830;4.364;2023-05-07T03:56:59;10.93;;;3.60;;
23078;SDS011;11707;50.830;4.364;2023-05-07T03:59:24;11.68;;;3.25;;
23078;SDS011;11707;50.830;4.364;2023-05-07T04:01:50;10.52;;;3.60;;
23078;SDS011;11707;50.830;4.364;2023-05-07T04:04:16;11.00;;;3.20;;
23078;SDS011;11707;50.830;4.364;2023-05-07T04:06:42;9.65;;;3.85;;
23078;SDS011;11707;50.830;4.364;2023-05-07T04:09:07;11.40;;;3.45;;
23078;SDS011;11707;50.830;4.364;2023-05-07T04:11:34;5.32;;;2.33;;
23078;SDS011;11707;50.830;4.364;2023-05-07T04:14:00;7.95;;;3.33;;
23078;SDS011;11707;50.830;4.364;2023-05-07T04:16:26;8.07;;;3.25;;
23078;SDS011;11707;50.830;4.364;2023-05-07T04:18:52;8.00;;;3.10;;
23078;SDS011;11707;50.830;4.364;2023-05-07T04:21:18;9.98;;;2.90;;
23078;SDS011;11707;50.830;4.364;2023-05-07T04:23:45;7.30;;;2.83;;
23078;SDS011;11707;50.830;4.364;2023-05-07T04:26:11;6.63;;;3.05;;
23078;SDS011;11707;50.830;4.364;2023-05-07T04:28:38;9.85;;;3.65;;
23078;SDS011;11707;50.830;4.364;2023-05-07T04:31:06;7.07;;;3.45;;
23078;SDS011;11707;50.830;4.364;2023-05-07T04:33:32;9.45;;;3.75;;
23078;SDS011;11707;50.830;4.364;2023-05-07T04:35:58;6.57;;;3.08;;
23078;SDS011;11707;50.830;4.364;2023-05-07T04:38:30;6.93;;;3.05;;
23078;SDS011;11707;50.830;4.364;2023-05-07T04:40:57;11.75;;;3.35;;
23078;SDS011;11707;50.830;4.364;2023-05-07T04:43:29;11.32;;;3.75;;
23078;SDS011;11707;50.830;4.364;2023-05-07T04:45:55;8.18;;;3.22;;
23078;SDS011;11707;50.830;4.364;2023-05-07T04:48:23;10.55;;;3.13;;
23078;SDS011;11707;50.830;4.364;2023-05-07T04:50:50;14.60;;;3.40;;
23078;SDS011;11707;50.830;4.364;2023-05-07T04:53:16;9.43;;;3.40;;
23078;SDS011;11707;50.830;4.364;2023-05-07T04:55:42;11.52;;;3.28;;
23078;SDS011;11707;50.830;4.364;2023-05-07T04:58:11;10.55;;;3.05;;
23078;SDS011;11707;50.830;4.364;2023-05-07T05:00:37;5.90;;;3.30;;
23078;SDS011;11707;50.830;4.364;2023-05-07T05:03:04;8.48;;;3.10;;
23078;SDS011;11707;50.830;4.364;2023-05-07T05:05:34;9.25;;;2.75;;
23078;SDS011;11707;50.830;4.364;2023-05-07T05:07:59;7.10;;;3.05;;
23078;SDS011;11707;50.830;4.364;2023-05-07T05:10:27;10.02;;;2.83;;
23078;SDS011;11707;50.830;4.364;2023-05-07T05:12:55;7.72;;;3.17;;
23078;SDS011;11707;50.830;4.364;2023-05-07T05:15:21;9.98;;;2.80;;
23078;SDS011;11707;50.830;4.364;2023-05-07T05:17:47;11.38;;;2.55;;
23078;SDS011;11707;50.830;4.364;2023-05-07T05:20:13;12.55;;;3.05;;
23078;SDS011;11707;50.830;4.364;2023-05-07T05:22:39;9.20;;;2.78;;
23078;SDS011;11707;50.830;4.364;2023-05-07T05:25:05;6.53;;;2.50;;
23078;SDS011;11707;50.830;4.364;2023-05-07T05:27:31;8.48;;;3.17;;
23078;SDS011;11707;50.830;4.364;2023-05-07T05:29:59;7.85;;;3.13;;
23078;SDS011;11707;50.830;4.364;2023-05-07T05:32:24;11.77;;;3.65;;
23078;SDS011;11707;50.830;4.364;2023-05-07T05:34:50;7.95;;;2.97;;
23078;SDS011;11707;50.830;4.364;2023-05-07T05:37:16;9.40;;;3.05;;
23078;SDS011;11707;50.830;4.364;2023-05-07T05:39:44;9.73;;;3.10;;
23078;SDS011;11707;50.830;4.364;2023-05-07T05:42:12;9.38;;;3.42;;
23078;SDS011;11707;50.830;4.364;2023-05-07T05:44:41;7.88;;;2.80;;
23078;SDS011;11707;50.830;4.364;2023-05-07T05:47:06;9.68;;;2.88;;
23078;SDS011;11707;50.830;4.364;2023-05-07T05:49:32;8.80;;;2.85;;
23078;SDS011;11707;50.830;4.364;2023-05-07T05:51:58;9.00;;;3.33;;
23078;SDS011;11707;50.830;4.364;2023-05-07T05:54:25;7.93;;;2.90;;
23078;SDS011;11707;50.830;4.364;2023-05-07T05:56:51;6.85;;;3.28;;
23078;SDS011;11707;50.830;4.364;2023-05-07T05:59:17;8.43;;;3.45;;
23078;SDS011;11707;50.830;4.364;2023-05-07T06:01:45;9.57;;;3.78;;
23078;SDS011;11707;50.830;4.364;2023-05-07T06:04:11;8.77;;;4.30;;
23078;SDS011;11707;50.830;4.364;2023-05-07T06:06:36;13.95;;;4.38;;
23078;SDS011;11707;50.830;4.364;2023-05-07T06:09:02;10.77;;;4.72;;
23078;SDS011;11707;50.830;4.364;2023-05-07T06:11:28;10.75;;;4.45;;
23078;SDS011;11707;50.830;4.364;2023-05-07T06:13:53;10.75;;;4.10;;
23078;SDS011;11707;50.830;4.364;2023-05-07T06:16:19;8.18;;;4.22;;
23078;SDS011;11707;50.830;4.364;2023-05-07T06:18:45;17.80;;;5.15;;
23078;SDS011;11707;50.830;4.364;2023-05-07T06:21:11;9.23;;;4.50;;
23078;SDS011;11707;50.830;4.364;2023-05-07T06:23:40;13.68;;;4.38;;
23078;SDS011;11707;50.830;4.364;2023-05-07T06:26:06;10.82;;;3.97;;
23078;SDS011;11707;50.830;4.364;2023-05-07T06:28:32;9.95;;;4.18;;
23078;SDS011;11707;50.830;4.364;2023-05-07T06:31:19;12.48;;;4.40;;
23078;SDS011;11707;50.830;4.364;2023-05-07T06:33:48;10.07;;;3.85;;
23078;SDS011;11707;50.830;4.364;2023-05-07T06:36:18;10.00;;;4.70;;
23078;SDS011;11707;50.830;4.364;2023-05-07T06:38:44;11.50;;;4.43;;
23078;SDS011;11707;50.830;4.364;2023-05-07T06:41:12;12.25;;;4.53;;
23078;SDS011;11707;50.830;4.364;2023-05-07T06:43:37;8.88;;;4.35;;
23078;SDS011;11707;50.830;4.364;2023-05-07T06:46:03;12.30;;;4.75;;
23078;SDS011;11707;50.830;4.364;2023-05-07T06:48:30;12.10;;;4.90;;
23078;SDS011;11707;50.830;4.364;2023-05-07T06:50:55;8.55;;;4.35;;
23078;SDS011;11707;50.830;4.364;2023-05-07T06:53:22;15.23;;;5.25;;
23078;SDS011;11707;50.830;4.364;2023-05-07T06:55:48;10.90;;;5.15;;
23078;SDS011;11707;50.830;4.364;2023-05-07T06:58:14;12.30;;;4.45;;
23078;SDS011;11707;50.830;4.364;2023-05-07T07:00:40;6.43;;;4.05;;
23078;SDS011;11707;50.830;4.364;2023-05-07T07:03:06;11.65;;;4.85;;
23078;SDS011;11707;50.830;4.364;2023-05-07T07:05:32;9.90;;;4.95;;
23078;SDS011;11707;50.830;4.364;2023-05-07T07:07:58;10.48;;;5.00;;
23078;SDS011;11707;50.830;4.364;2023-05-07T07:10:23;10.77;;;4.15;;
23078;SDS011;11707;50.830;4.364;2023-05-07T07:12:49;8.07;;;4.47;;
23078;SDS011;11707;50.830;4.364;2023-05-07T07:15:17;8.48;;;4.88;;
23078;SDS011;11707;50.830;4.364;2023-05-07T07:17:43;13.93;;;5.53;;
23078;SDS011;11707;50.830;4.364;2023-05-07T07:20:09;9.75;;;4.80;;
23078;SDS011;11707;50.830;4.364;2023-05-07T07:22:35;10.98;;;5.38;;
23078;SDS011;11707;50.830;4.364;2023-05-07T07:25:01;12.57;;;5.22;;
23078;SDS011;11707;50.830;4.364;2023-05-07T07:27:32;12.13;;;5.25;;
23078;SDS011;11707;50.830;4.364;2023-05-07T07:29:57;14.18;;;5.95;;
23078;SDS011;11707;50.830;4.364;2023-05-07T07:32:25;13.75;;;5.82;;
23078;SDS011;11707;50.830;4.364;2023-05-07T07:34:51;11.15;;;5.43;;
23078;SDS011;11707;50.830;4.364;2023-05-07T07:37:16;14.13;;;6.45;;
23078;SDS011;11707;50.830;4.364;2023-05-07T07:39:42;8.95;;;5.45;;
23078;SDS011;11707;50.830;4.364;2023-05-07T07:42:08;9.30;;;5.57;;
23078;SDS011;11707;50.830;4.364;2023-05-07T07:44:33;13.40;;;6.63;;
23078;SDS011;11707;50.830;4.364;2023-05-07T07:47:02;12.57;;;5.72;;
23078;SDS011;11707;50.830;4.364;2023-05-07T07:49:27;11.90;;;5.53;;
23078;SDS011;11707;50.830;4.364;2023-05-07T07:51:53;10.95;;;6.05;;
23078;SDS011;11707;50.830;4.364;2023-05-07T07:54:24;10.73;;;5.80;;
23078;SDS011;11707;50.830;4.364;2023-05-07T07:56:50;13.73;;;6.03;;
23078;SDS011;11707;50.830;4.364;2023-05-07T07:59:17;9.88;;;6.22;;
23078;SDS011;11707;50.830;4.364;2023-05-07T08:01:44;12.07;;;6.25;;
23078;SDS011;11707;50.830;4.364;2023-05-07T08:04:10;13.90;;;7.47;;
23078;SDS011;11707;50.830;4.364;2023-05-07T08:06:39;12.27;;;6.10;;
23078;SDS011;11707;50.830;4.364;2023-05-07T08:09:04;15.73;;;6.50;;
23078;SDS011;11707;50.830;4.364;2023-05-07T08:11:30;12.05;;;6.03;;
23078;SDS011;11707;50.830;4.364;2023-05-07T08:13:56;12.75;;;6.18;;
23078;SDS011;11707;50.830;4.364;2023-05-07T08:16:21;12.50;;;6.10;;
23078;SDS011;11707;50.830;4.364;2023-05-07T08:18:47;10.68;;;6.72;;
23078;SDS011;11707;50.830;4.364;2023-05-07T08:21:13;13.75;;;7.60;;
23078;SDS011;11707;50.830;4.364;2023-05-07T08:23:39;13.30;;;6.60;;
23078;SDS011;11707;50.830;4.364;2023-05-07T08:26:04;13.50;;;7.55;;
23078;SDS011;11707;50.830;4.364;2023-05-07T08:28:32;12.85;;;7.20;;
23078;SDS011;11707;50.830;4.364;2023-05-07T08:30:58;12.30;;;7.15;;
23078;SDS011;11707;50.830;4.364;2023-05-07T08:33:26;14.40;;;8.10;;
23078;SDS011;11707;50.830;4.364;2023-05-07T08:35:52;16.15;;;7.30;;
23078;SDS011;11707;50.830;4.364;2023-05-07T08:38:18;11.35;;;6.88;;
23078;SDS011;11707;50.830;4.364;2023-05-07T08:40:43;12.60;;;6.50;;
23078;SDS011;11707;50.830;4.364;2023-05-07T08:43:14;8.93;;;5.75;;
23078;SDS011;11707;50.830;4.364;2023-05-07T08:45:45;8.35;;;4.85;;
23078;SDS011;11707;50.830;4.364;2023-05-07T08:48:14;9.95;;;5.45;;
23078;SDS011;11707;50.830;4.364;2023-05-07T08:50:41;10.55;;;4.93;;
23078;SDS011;11707;50.830;4.364;2023-05-07T08:53:07;11.75;;;5.50;;
23078;SDS011;11707;50.830;4.364;2023-05-07T08:55:33;10.32;;;5.38;;
23078;SDS011;11707;50.830;4.364;2023-05-07T08:57:59;8.20;;;4.47;;
23078;SDS011;11707;50.830;4.364;2023-05-07T09:00:26;9.35;;;4.78;;
23078;SDS011;11707;50.830;4.364;2023-05-07T09:02:55;9.15;;;4.90;;
23078;SDS011;11707;50.830;4.364;2023-05-07T09:05:21;7.05;;;4.22;;
23078;SDS011;11707;50.830;4.364;2023-05-07T09:07:46;8.02;;;5.22;;
23078;SDS011;11707;50.830;4.364;2023-05-07T09:10:17;6.15;;;4.15;;
23078;SDS011;11707;50.830;4.364;2023-05-07T09:12:43;9.45;;;5.00;;
23078;SDS011;11707;50.830;4.364;2023-05-07T09:15:11;8.68;;;4.13;;
23078;SDS011;11707;50.830;4.364;2023-05-07T09:17:37;7.60;;;4.00;;
23078;SDS011;11707;50.830;4.364;2023-05-07T09:20:03;6.63;;;3.47;;
23078;SDS011;11707;50.830;4.364;2023-05-07T09:22:33;8.35;;;3.63;;
23078;SDS011;11707;50.830;4.364;2023-05-07T09:25:02;5.60;;;3.65;;
23078;SDS011;11707;50.830;4.364;2023-05-07T09:27:28;7.75;;;4.30;;
23078;SDS011;11707;50.830;4.364;2023-05-07T09:29:56;8.75;;;4.18;;
23078;SDS011;11707;50.830;4.364;2023-05-07T09:32:21;7.95;;;4.00;;
23078;SDS011;11707;50.830;4.364;2023-05-07T09:34:47;7.15;;;3.40;;
23078;SDS011;11707;50.830;4.364;2023-05-07T09:37:13;6.07;;;2.92;;
23078;SDS011;11707;50.830;4.364;2023-05-07T09:39:43;8.60;;;2.63;;
23078;SDS011;11707;50.830;4.364;2023-05-07T09:42:14;6.35;;;3.05;;
23078;SDS011;11707;50.830;4.364;2023-05-07T09:44:41;8.70;;;3.20;;
23078;SDS011;11707;50.830;4.364;2023-05-07T09:47:08;14.25;;;8.90;;
23078;SDS011;11707;50.830;4.364;2023-05-07T09:49:37;6.55;;;3.10;;
23078;SDS011;11707;50.830;4.364;2023-05-07T09:52:07;12.15;;;3.67;;
23078;SDS011;11707;50.830;4.364;2023-05-07T09:54:35;7.35;;;2.33;;
23078;SDS011;11707;50.830;4.364;2023-05-07T09:57:03;8.20;;;3.40;;
23078;SDS011;11707;50.830;4.364;2023-05-07T09:59:31;9.23;;;2.85;;
23078;SDS011;11707;50.830;4.364;2023-05-07T10:01:58;6.65;;;2.72;;
23078;SDS011;11707;50.830;4.364;2023-05-07T10:04:25;5.88;;;2.70;;
23078;SDS011;11707;50.830;4.364;2023-05-07T10:06:51;8.38;;;2.88;;
23078;SDS011;11707;50.830;4.364;2023-05-07T10:09:18;7.20;;;2.60;;
23078;SDS011;11707;50.830;4.364;2023-05-07T10:11:45;6.47;;;3.17;;
23078;SDS011;11707;50.830;4.364;2023-05-07T10:14:12;5.95;;;3.05;;
23078;SDS011;11707;50.830;4.364;2023-05-07T10:16:39;6.22;;;2.80;;
23078;SDS011;11707;50.830;4.364;2023-05-07T10:19:07;7.68;;;3.75;;
23078;SDS011;11707;50.830;4.364;2023-05-07T10:21:37;6.55;;;2.72;;
23078;SDS011;11707;50.830;4.364;2023-05-07T10:27:00;6.20;;;3.38;;
23078;SDS011;11707;50.830;4.364;2023-05-07T10:29:38;7.50;;;3.92;;
23078;SDS011;11707;50.830;4.364;2023-05-07T10:32:30;4.72;;;3.30;;
23078;SDS011;11707;50.830;4.364;2023-05-07T10:35:10;7.15;;;4.10;;
23078;SDS011;11707;50.830;4.364;2023-05-07T10:37:57;6.18;;;3.13;;
23078;SDS011;11707;50.830;4.364;2023-05-07T10:40:23;7.20;;;3.63;;
23078;SDS011;11707;50.830;4.364;2023-05-07T10:45:20;6.38;;;3.90;;
23078;SDS011;11707;50.830;4.364;2023-05-07T10:48:20;6.70;;;4.30;;
23078;SDS011;11707;50.830;4.364;2023-05-07T10:50:43;7.40;;;3.55;;
23078;SDS011;11707;50.830;4.364;2023-05-07T10:55:47;4.72;;;2.83;;
23078;SDS011;11707;50.830;4.364;2023-05-07T10:58:25;5.25;;;2.72;;
23078;SDS011;11707;50.830;4.364;2023-05-07T11:00:56;5.15;;;2.50;;
23078;SDS011;11707;50.830;4.364;2023-05-07T11:03:23;7.93;;;2.60;;
23078;SDS011;11707;50.830;4.364;2023-05-07T11:06:09;3.92;;;2.17;;
23078;SDS011;11707;50.830;4.364;2023-05-07T11:08:54;5.18;;;2.38;;
23078;SDS011;11707;50.830;4.364;2023-05-07T11:14:13;7.05;;;4.28;;
23078;SDS011;11707;50.830;4.364;2023-05-07T11:16:40;3.08;;;2.28;;
23078;SDS011;11707;50.830;4.364;2023-05-07T11:19:06;5.32;;;2.13;;
23078;SDS011;11707;50.830;4.364;2023-05-07T11:24:01;5.47;;;2.70;;
23078;SDS011;11707;50.830;4.364;2023-05-07T11:26:28;6.28;;;2.47;;
23078;SDS011;11707;50.830;4.364;2023-05-07T11:29:09;6.05;;;2.72;;
23078;SDS011;11707;50.830;4.364;2023-05-07T11:31:39;6.30;;;2.78;;
23078;SDS011;11707;50.830;4.364;2023-05-07T11:34:05;5.68;;;2.58;;
23078;SDS011;11707;50.830;4.364;2023-05-07T11:36:32;6.50;;;2.60;;
23078;SDS011;11707;50.830;4.364;2023-05-07T11:38:58;8.70;;;4.18;;
23078;SDS011;11707;50.830;4.364;2023-05-07T11:41:37;4.72;;;3.03;;
23078;SDS011;11707;50.830;4.364;2023-05-07T11:44:03;7.85;;;2.85;;
23078;SDS011;11707;50.830;4.364;2023-05-07T11:46:29;5.63;;;3.10;;
23078;SDS011;11707;50.830;4.364;2023-05-07T11:48:57;6.90;;;3.50;;
23078;SDS011;11707;50.830;4.364;2023-05-07T11:51:24;5.00;;;2.60;;
23078;SDS011;11707;50.830;4.364;2023-05-07T11:53:52;7.22;;;2.80;;
23078;SDS011;11707;50.830;4.364;2023-05-07T11:56:19;4.07;;;2.20;;
23078;SDS011;11707;50.830;4.364;2023-05-07T11:58:46;9.10;;;4.50;;
23078;SDS011;11707;50.830;4.364;2023-05-07T12:01:12;9.23;;;5.63;;
23078;SDS011;11707;50.830;4.364;2023-05-07T12:03:42;4.85;;;3.08;;
23078;SDS011;11707;50.830;4.364;2023-05-07T12:06:10;5.15;;;2.45;;
23078;SDS011;11707;50.830;4.364;2023-05-07T12:08:38;4.45;;;2.67;;
23078;SDS011;11707;50.830;4.364;2023-05-07T12:11:07;4.35;;;2.55;;
23078;SDS011;11707;50.830;4.364;2023-05-07T12:13:36;4.50;;;3.03;;
23078;SDS011;11707;50.830;4.364;2023-05-07T12:16:02;7.20;;;2.50;;
23078;SDS011;11707;50.830;4.364;2023-05-07T12:18:29;4.13;;;2.35;;
23078;SDS011;11707;50.830;4.364;2023-05-07T12:20:55;5.22;;;2.03;;
23078;SDS011;11707;50.830;4.364;2023-05-07T12:23:24;3.25;;;2.38;;
23078;SDS011;11707;50.830;4.364;2023-05-07T12:25:50;4.00;;;2.40;;
23078;SDS011;11707;50.830;4.364;2023-05-07T12:28:17;4.32;;;3.65;;
23078;SDS011;11707;50.830;4.364;2023-05-07T12:30:43;4.82;;;2.97;;
23078;SDS011;11707;50.830;4.364;2023-05-07T12:33:14;7.43;;;3.60;;
23078;SDS011;11707;50.830;4.364;2023-05-07T12:35:42;6.30;;;3.60;;
23078;SDS011;11707;50.830;4.364;2023-05-07T12:38:09;7.10;;;4.40;;
23078;SDS011;11707;50.830;4.364;2023-05-07T12:40:40;5.55;;;4.32;;
23078;SDS011;11707;50.830;4.364;2023-05-07T12:43:20;5.57;;;4.07;;
23078;SDS011;11707;50.830;4.364;2023-05-07T12:45:50;8.23;;;6.03;;
23078;SDS011;11707;50.830;4.364;2023-05-07T12:48:20;5.70;;;4.28;;
23078;SDS011;11707;50.830;4.364;2023-05-07T12:50:50;6.82;;;5.18;;
23078;SDS011;11707;50.830;4.364;2023-05-07T12:53:22;6.47;;;5.13;;
23078;SDS011;11707;50.830;4.364;2023-05-07T12:55:56;6.80;;;5.47;;
23078;SDS011;11707;50.830;4.364;2023-05-07T12:58:43;9.02;;;6.63;;
23078;SDS011;11707;50.830;4.364;2023-05-07T13:03:40;7.28;;;5.75;;
23078;SDS011;11707;50.830;4.364;2023-05-07T13:06:06;8.55;;;6.10;;
23078;SDS011;11707;50.830;4.364;2023-05-07T13:08:40;9.30;;;7.03;;
23078;SDS011;11707;50.830;4.364;2023-05-07T13:11:10;8.45;;;6.70;;
23078;SDS011;11707;50.830;4.364;2023-05-07T13:13:37;8.80;;;6.70;;
23078;SDS011;11707;50.830;4.364;2023-05-07T13:16:08;9.15;;;6.90;;
23078;SDS011;11707;50.830;4.364;2023-05-07T13:18:35;7.22;;;6.53;;
23078;SDS011;11707;50.830;4.364;2023-05-07T13:21:03;8.50;;;6.65;;
23078;SDS011;11707;50.830;4.364;2023-05-07T13:23:29;11.18;;;8.52;;
23078;SDS011;11707;50.830;4.364;2023-05-07T13:25:55;8.55;;;6.82;;
23078;SDS011;11707;50.830;4.364;2023-05-07T13:28:21;9.27;;;7.15;;
23078;SDS011;11707;50.830;4.364;2023-05-07T13:30:51;10.50;;;7.50;;
23078;SDS011;11707;50.830;4.364;2023-05-07T13:33:20;10.35;;;8.48;;
23078;SDS011;11707;50.830;4.364;2023-05-07T13:35:45;8.32;;;6.88;;
23078;SDS011;11707;50.830;4.364;2023-05-07T13:38:11;8.07;;;7.22;;
23078;SDS011;11707;50.830;4.364;2023-05-07T13:40:37;10.30;;;9.10;;
23078;SDS011;11707;50.830;4.364;2023-05-07T13:43:05;9.25;;;7.47;;
23078;SDS011;11707;50.830;4.364;2023-05-07T13:45:31;10.35;;;7.85;;
23078;SDS011;11707;50.830;4.364;2023-05-07T13:47:56;8.82;;;7.93;;
23078;SDS011;11707;50.830;4.364;2023-05-07T13:50:25;11.35;;;7.95;;
23078;SDS011;11707;50.830;4.364;2023-05-07T13:52:52;11.48;;;8.68;;
23078;SDS011;11707;50.830;4.364;2023-05-07T13:55:18;12.43;;;9.18;;
23078;SDS011;11707;50.830;4.364;2023-05-07T13:57:43;10.55;;;9.25;;
23078;SDS011;11707;50.830;4.364;2023-05-07T14:00:10;10.73;;;9.55;;
23078;SDS011;11707;50.830;4.364;2023-05-07T14:02:36;9.98;;;8.48;;
23078;SDS011;11707;50.830;4.364;2023-05-07T14:05:02;10.18;;;8.77;;
23078;SDS011;11707;50.830;4.364;2023-05-07T14:07:28;11.60;;;9.70;;
23078;SDS011;11707;50.830;4.364;2023-05-07T14:09:58;12.48;;;10.85;;
23078;SDS011;11707;50.830;4.364;2023-05-07T14:12:24;13.68;;;10.85;;
23078;SDS011;11707;50.830;4.364;2023-05-07T14:14:53;12.70;;;11.27;;
23078;SDS011;11707;50.830;4.364;2023-05-07T14:17:23;12.50;;;11.18;;
23078;SDS011;11707;50.830;4.364;2023-05-07T14:19:51;12.77;;;10.90;;
23078;SDS011;11707;50.830;4.364;2023-05-07T14:22:19;11.27;;;9.77;;
23078;SDS011;11707;50.830;4.364;2023-05-07T14:24:48;13.05;;;10.20;;
23078;SDS011;11707;50.830;4.364;2023-05-07T14:27:16;12.57;;;10.50;;
23078;SDS011;11707;50.830;4.364;2023-05-07T14:29:42;12.18;;;9.75;;
23078;SDS011;11707;50.830;4.364;2023-05-07T14:32:08;11.73;;;9.60;;
23078;SDS011;11707;50.830;4.364;2023-05-07T14:34:34;11.77;;;8.82;;
23078;SDS011;11707;50.830;4.364;2023-05-07T14:36:59;9.45;;;8.43;;
23078;SDS011;11707;50.830;4.364;2023-05-07T14:39:25;9.60;;;8.32;;
23078;SDS011;11707;50.830;4.364;2023-05-07T14:41:51;9.02;;;7.60;;
23078;SDS011;11707;50.830;4.364;2023-05-07T14:44:19;10.27;;;8.02;;
23078;SDS011;11707;50.830;4.364;2023-05-07T14:46:47;10.27;;;7.28;;
23078;SDS011;11707;50.830;4.364;2023-05-07T14:49:13;8.30;;;6.97;;
23078;SDS011;11707;50.830;4.364;2023-05-07T14:51:45;10.05;;;7.70;;
23078;SDS011;11707;50.830;4.364;2023-05-07T14:54:11;10.68;;;8.40;;
23078;SDS011;11707;50.830;4.364;2023-05-07T14:56:39;9.82;;;7.78;;
23078;SDS011;11707;50.830;4.364;2023-05-07T14:59:05;10.35;;;9.15;;
23078;SDS011;11707;50.830;4.364;2023-05-07T15:01:32;15.80;;;14.10;;
23078;SDS011;11707;50.830;4.364;2023-05-07T15:03:59;9.15;;;7.57;;